sensor_id;sensor_type;location;lat;lon;timestamp;P1;durP1;ratioP1;P2;durP2;ratioP2
2299;SDS011;1158;48.750;9.078;2023-03-24T00:00:18;5.00;;;4.17;;
2299;SDS011;1158;48.750;9.078;2023-03-24T00:02:46;6.43;;;3.43;;
2299;SDS011;1158;48.750;9.078;2023-03-24T00:05:15;9.13;;;4.63;;
2299;SDS011;1158;48.750;9.078;2023-03-24T00:07:45;6.83;;;3.93;;
2299;SDS011;1158;48.750;9.078;2023-03-24T00:10:14;7.60;;;4.60;;
2299;SDS011;1158;48.750;9.078;2023-03-24T00:12:42;6.60;;;4.10;;
2299;SDS011;1158;48.750;9.078;2023-03-24T00:15:10;8.00;;;4.33;;
2299;SDS011;1158;48.750;9.078;2023-03-24T00:17:39;7.17;;;4.30;;
2299;SDS011;1158;48.750;9.078;2023-03-24T00:20:06;7.30;;;4.50;;
2299;SDS011;1158;48.750;9.078;2023-03-24T00:22:39;6.13;;;3.77;;
2299;SDS011;1158;48.750;9.078;2023-03-24T00:25:08;6.17;;;4.40;;
2299;SDS011;1158;48.750;9.078;2023-03-24T00:27:35;6.43;;;3.93;;
2299;SDS011;1158;48.750;9.078;2023-03-24T00:30:07;5.17;;;3.87;;
2299;SDS011;1158;48.750;9.078;2023-03-24T00:32:35;5.83;;;3.53;;
2299;SDS011;1158;48.750;9.078;2023-03-24T00:35:02;5.37;;;4.10;;
2299;SDS011;1158;48.750;9.078;2023-03-24T00:37:29;7.40;;;3.67;;
2299;SDS011;1158;48.750;9.078;2023-03-24T00:39:56;6.00;;;3.73;;
2299;SDS011;1158;48.750;9.078;2023-03-24T00:42:25;5.63;;;3.80;;
2299;SDS011;1158;48.750;9.078;2023-03-24T00:44:51;7.60;;;3.70;;
2299;SDS011;1158;48.750;9.078;2023-03-24T00:47:18;5.00;;;3.67;;
2299;SDS011;1158;48.750;9.078;2023-03-24T00:49:50;4.80;;;3.73;;
2299;SDS011;1158;48.750;9.078;2023-03-24T00:52:19;4.43;;;3.20;;
2299;SDS011;1158;48.750;9.078;2023-03-24T00:54:47;5.07;;;3.40;;
2299;SDS011;1158;48.750;9.078;2023-03-24T00:57:16;4.70;;;2.90;;
2299;SDS011;1158;48.750;9.078;2023-03-24T00:59:47;4.40;;;2.87;;
2299;SDS011;1158;48.750;9.078;2023-03-24T01:02:14;6.67;;;4.00;;
2299;SDS011;1158;48.750;9.078;2023-03-24T01:04:43;9.93;;;3.50;;
2299;SDS011;1158;48.750;9.078;2023-03-24T01:07:11;4.47;;;3.23;;
2299;SDS011;1158;48.750;9.078;2023-03-24T01:09:42;6.03;;;3.20;;
2299;SDS011;1158;48.750;9.078;2023-03-24T01:12:10;4.70;;;3.20;;
2299;SDS011;1158;48.750;9.078;2023-03-24T01:14:37;6.30;;;2.90;;
2299;SDS011;1158;48.750;9.078;2023-03-24T01:17:05;4.50;;;2.90;;
2299;SDS011;1158;48.750;9.078;2023-03-24T01:19:32;5.10;;;3.03;;
2299;SDS011;1158;48.750;9.078;2023-03-24T01:21:58;4.90;;;3.13;;
2299;SDS011;1158;48.750;9.078;2023-03-24T01:24:26;4.33;;;2.90;;
2299;SDS011;1158;48.750;9.078;2023-03-24T01:26:53;5.87;;;3.30;;
2299;SDS011;1158;48.750;9.078;2023-03-24T01:29:20;6.47;;;3.20;;
2299;SDS011;1158;48.750;9.078;2023-03-24T01:31:47;3.63;;;2.80;;
2299;SDS011;1158;48.750;9.078;2023-03-24T01:34:15;4.60;;;2.93;;
2299;SDS011;1158;48.750;9.078;2023-03-24T01:36:42;6.57;;;3.43;;
2299;SDS011;1158;48.750;9.078;2023-03-24T01:39:08;4.23;;;2.63;;
2299;SDS011;1158;48.750;9.078;2023-03-24T01:41:36;6.53;;;2.97;;
2299;SDS011;1158;48.750;9.078;2023-03-24T01:44:27;5.13;;;2.73;;
2299;SDS011;1158;48.750;9.078;2023-03-24T01:46:56;7.97;;;3.17;;
2299;SDS011;1158;48.750;9.078;2023-03-24T01:49:25;6.83;;;2.60;;
2299;SDS011;1158;48.750;9.078;2023-03-24T01:51:57;4.63;;;2.63;;
2299;SDS011;1158;48.750;9.078;2023-03-24T01:54:27;4.13;;;3.00;;
2299;SDS011;1158;48.750;9.078;2023-03-24T01:56:58;4.10;;;2.97;;
2299;SDS011;1158;48.750;9.078;2023-03-24T01:59:28;4.83;;;2.97;;
2299;SDS011;1158;48.750;9.078;2023-03-24T02:01:57;6.07;;;3.50;;
2299;SDS011;1158;48.750;9.078;2023-03-24T02:04:29;4.13;;;2.83;;
2299;SDS011;1158;48.750;9.078;2023-03-24T02:06:58;4.80;;;2.80;;
2299;SDS011;1158;48.750;9.078;2023-03-24T02:09:29;3.97;;;2.63;;
2299;SDS011;1158;48.750;9.078;2023-03-24T02:11:56;3.13;;;2.57;;
2299;SDS011;1158;48.750;9.078;2023-03-24T02:14:23;5.40;;;2.70;;
2299;SDS011;1158;48.750;9.078;2023-03-24T02:17:04;3.40;;;2.00;;
2299;SDS011;1158;48.750;9.078;2023-03-24T02:20:14;10.80;;;3.43;;
2299;SDS011;1158;48.750;9.078;2023-03-24T02:28:59;5.00;;;2.90;;
2299;SDS011;1158;48.750;9.078;2023-03-24T02:31:46;3.10;;;2.30;;
2299;SDS011;1158;48.750;9.078;2023-03-24T02:34:51;3.87;;;2.97;;
2299;SDS011;1158;48.750;9.078;2023-03-24T02:40:35;3.90;;;2.73;;
2299;SDS011;1158;48.750;9.078;2023-03-24T02:43:12;5.50;;;2.37;;
2299;SDS011;1158;48.750;9.078;2023-03-24T02:45:46;3.80;;;2.67;;
2299;SDS011;1158;48.750;9.078;2023-03-24T02:48:22;3.80;;;2.70;;
2299;SDS011;1158;48.750;9.078;2023-03-24T02:50:59;7.07;;;3.07;;
2299;SDS011;1158;48.750;9.078;2023-03-24T02:53:35;5.03;;;2.80;;
2299;SDS011;1158;48.750;9.078;2023-03-24T02:56:10;5.23;;;2.77;;
2299;SDS011;1158;48.750;9.078;2023-03-24T02:58:44;4.30;;;2.73;;
2299;SDS011;1158;48.750;9.078;2023-03-24T03:01:16;2.93;;;2.10;;
2299;SDS011;1158;48.750;9.078;2023-03-24T03:03:52;4.10;;;2.63;;
2299;SDS011;1158;48.750;9.078;2023-03-24T03:06:24;3.67;;;2.80;;
2299;SDS011;1158;48.750;9.078;2023-03-24T03:08:54;3.53;;;2.50;;
2299;SDS011;1158;48.750;9.078;2023-03-24T03:11:24;4.00;;;2.67;;
2299;SDS011;1158;48.750;9.078;2023-03-24T03:13:52;5.00;;;2.40;;
2299;SDS011;1158;48.750;9.078;2023-03-24T03:16:22;6.13;;;2.83;;
2299;SDS011;1158;48.750;9.078;2023-03-24T03:18:59;3.80;;;2.80;;
2299;SDS011;1158;48.750;9.078;2023-03-24T03:21:29;5.43;;;2.70;;
2299;SDS011;1158;48.750;9.078;2023-03-24T03:24:01;4.40;;;2.60;;
2299;SDS011;1158;48.750;9.078;2023-03-24T03:26:32;3.67;;;2.53;;
2299;SDS011;1158;48.750;9.078;2023-03-24T03:29:03;4.27;;;2.63;;
2299;SDS011;1158;48.750;9.078;2023-03-24T03:31:34;4.50;;;2.73;;
2299;SDS011;1158;48.750;9.078;2023-03-24T03:34:06;4.20;;;2.50;;
2299;SDS011;1158;48.750;9.078;2023-03-24T03:36:40;3.60;;;2.40;;
2299;SDS011;1158;48.750;9.078;2023-03-24T03:39:14;3.60;;;2.57;;
2299;SDS011;1158;48.750;9.078;2023-03-24T03:41:45;4.17;;;3.10;;
2299;SDS011;1158;48.750;9.078;2023-03-24T03:44:12;4.40;;;2.80;;
2299;SDS011;1158;48.750;9.078;2023-03-24T03:46:39;4.43;;;3.00;;
2299;SDS011;1158;48.750;9.078;2023-03-24T03:49:06;9.03;;;3.13;;
2299;SDS011;1158;48.750;9.078;2023-03-24T03:51:33;4.07;;;2.70;;
2299;SDS011;1158;48.750;9.078;2023-03-24T03:54:01;5.30;;;2.67;;
2299;SDS011;1158;48.750;9.078;2023-03-24T03:56:31;5.37;;;3.17;;
2299;SDS011;1158;48.750;9.078;2023-03-24T03:59:01;5.13;;;2.70;;
2299;SDS011;1158;48.750;9.078;2023-03-24T04:01:30;5.73;;;3.20;;
2299;SDS011;1158;48.750;9.078;2023-03-24T04:04:07;4.63;;;2.77;;
2299;SDS011;1158;48.750;9.078;2023-03-24T04:06:45;3.47;;;2.70;;
2299;SDS011;1158;48.750;9.078;2023-03-24T04:09:24;4.50;;;3.00;;
2299;SDS011;1158;48.750;9.078;2023-03-24T04:12:07;3.50;;;2.40;;
2299;SDS011;1158;48.750;9.078;2023-03-24T04:17:46;3.73;;;2.90;;
2299;SDS011;1158;48.750;9.078;2023-03-24T04:20:21;4.17;;;2.83;;
2299;SDS011;1158;48.750;9.078;2023-03-24T04:22:55;4.87;;;2.73;;
2299;SDS011;1158;48.750;9.078;2023-03-24T04:25:33;6.10;;;3.23;;
2299;SDS011;1158;48.750;9.078;2023-03-24T04:28:16;4.70;;;3.07;;
2299;SDS011;1158;48.750;9.078;2023-03-24T04:30:51;4.50;;;3.17;;
2299;SDS011;1158;48.750;9.078;2023-03-24T04:33:23;5.17;;;2.83;;
2299;SDS011;1158;48.750;9.078;2023-03-24T04:35:56;3.67;;;2.37;;
2299;SDS011;1158;48.750;9.078;2023-03-24T04:38:30;7.00;;;3.10;;
2299;SDS011;1158;48.750;9.078;2023-03-24T04:40:59;3.47;;;2.53;;
2299;SDS011;1158;48.750;9.078;2023-03-24T04:43:30;4.57;;;2.80;;
2299;SDS011;1158;48.750;9.078;2023-03-24T04:46:02;5.77;;;2.87;;
2299;SDS011;1158;48.750;9.078;2023-03-24T04:48:29;4.67;;;3.00;;
2299;SDS011;1158;48.750;9.078;2023-03-24T04:50:57;4.10;;;2.80;;
2299;SDS011;1158;48.750;9.078;2023-03-24T04:53:25;5.93;;;2.50;;
2299;SDS011;1158;48.750;9.078;2023-03-24T04:55:56;5.73;;;2.90;;
2299;SDS011;1158;48.750;9.078;2023-03-24T04:58:27;3.40;;;2.30;;
2299;SDS011;1158;48.750;9.078;2023-03-24T05:00:54;5.67;;;2.60;;
2299;SDS011;1158;48.750;9.078;2023-03-24T05:03:23;7.67;;;2.57;;
2299;SDS011;1158;48.750;9.078;2023-03-24T05:05:50;4.60;;;2.97;;
2299;SDS011;1158;48.750;9.078;2023-03-24T05:08:18;4.77;;;2.73;;
2299;SDS011;1158;48.750;9.078;2023-03-24T05:10:46;3.67;;;3.00;;
2299;SDS011;1158;48.750;9.078;2023-03-24T05:13:13;5.23;;;2.90;;
2299;SDS011;1158;48.750;9.078;2023-03-24T05:15:40;4.00;;;2.67;;
2299;SDS011;1158;48.750;9.078;2023-03-24T05:18:07;7.60;;;3.03;;
2299;SDS011;1158;48.750;9.078;2023-03-24T05:20:35;3.30;;;2.60;;
2299;SDS011;1158;48.750;9.078;2023-03-24T05:23:02;4.27;;;3.20;;
2299;SDS011;1158;48.750;9.078;2023-03-24T05:25:29;6.60;;;2.83;;
2299;SDS011;1158;48.750;9.078;2023-03-24T05:27:56;4.10;;;2.93;;
2299;SDS011;1158;48.750;9.078;2023-03-24T05:30:23;4.10;;;2.97;;
2299;SDS011;1158;48.750;9.078;2023-03-24T05:32:50;4.40;;;3.10;;
2299;SDS011;1158;48.750;9.078;2023-03-24T05:35:17;4.20;;;3.20;;
2299;SDS011;1158;48.750;9.078;2023-03-24T05:37:45;5.27;;;3.53;;
2299;SDS011;1158;48.750;9.078;2023-03-24T05:40:12;4.00;;;3.10;;
2299;SDS011;1158;48.750;9.078;2023-03-24T05:42:39;6.40;;;3.73;;
2299;SDS011;1158;48.750;9.078;2023-03-24T05:45:07;4.40;;;3.03;;
2299;SDS011;1158;48.750;9.078;2023-03-24T05:47:35;4.97;;;3.50;;
2299;SDS011;1158;48.750;9.078;2023-03-24T05:50:02;6.30;;;3.40;;
2299;SDS011;1158;48.750;9.078;2023-03-24T05:52:29;4.37;;;3.17;;
2299;SDS011;1158;48.750;9.078;2023-03-24T05:54:58;8.83;;;3.30;;
2299;SDS011;1158;48.750;9.078;2023-03-24T05:57:25;4.80;;;3.67;;
2299;SDS011;1158;48.750;9.078;2023-03-24T05:59:54;5.40;;;3.63;;
2299;SDS011;1158;48.750;9.078;2023-03-24T06:02:21;5.73;;;3.00;;
2299;SDS011;1158;48.750;9.078;2023-03-24T06:04:48;5.70;;;3.40;;
2299;SDS011;1158;48.750;9.078;2023-03-24T06:07:15;9.77;;;3.40;;
2299;SDS011;1158;48.750;9.078;2023-03-24T06:09:42;6.30;;;4.50;;
2299;SDS011;1158;48.750;9.078;2023-03-24T06:12:12;5.23;;;4.10;;
2299;SDS011;1158;48.750;9.078;2023-03-24T06:14:40;5.00;;;3.60;;
2299;SDS011;1158;48.750;9.078;2023-03-24T06:17:07;7.00;;;3.97;;
2299;SDS011;1158;48.750;9.078;2023-03-24T06:19:38;6.37;;;4.27;;
2299;SDS011;1158;48.750;9.078;2023-03-24T06:22:13;4.60;;;3.87;;
2299;SDS011;1158;48.750;9.078;2023-03-24T06:24:40;6.10;;;4.30;;
2299;SDS011;1158;48.750;9.078;2023-03-24T06:27:07;6.80;;;4.20;;
2299;SDS011;1158;48.750;9.078;2023-03-24T06:29:36;6.30;;;3.70;;
2299;SDS011;1158;48.750;9.078;2023-03-24T06:32:03;8.63;;;4.13;;
2299;SDS011;1158;48.750;9.078;2023-03-24T06:34:30;5.37;;;3.87;;
2299;SDS011;1158;48.750;9.078;2023-03-24T06:36:57;6.80;;;3.93;;
2299;SDS011;1158;48.750;9.078;2023-03-24T06:39:23;7.37;;;4.43;;
2299;SDS011;1158;48.750;9.078;2023-03-24T06:41:51;5.50;;;3.87;;
2299;SDS011;1158;48.750;9.078;2023-03-24T06:44:17;6.10;;;4.40;;
2299;SDS011;1158;48.750;9.078;2023-03-24T06:46:45;5.37;;;3.90;;
2299;SDS011;1158;48.750;9.078;2023-03-24T06:49:12;5.67;;;3.90;;
2299;SDS011;1158;48.750;9.078;2023-03-24T06:51:39;6.70;;;3.60;;
2299;SDS011;1158;48.750;9.078;2023-03-24T06:54:06;6.10;;;4.23;;
2299;SDS011;1158;48.750;9.078;2023-03-24T06:56:33;5.23;;;4.00;;
2299;SDS011;1158;48.750;9.078;2023-03-24T06:59:00;6.10;;;3.70;;
2299;SDS011;1158;48.750;9.078;2023-03-24T07:01:27;5.30;;;3.50;;
2299;SDS011;1158;48.750;9.078;2023-03-24T07:03:55;5.97;;;4.63;;
2299;SDS011;1158;48.750;9.078;2023-03-24T07:06:22;4.47;;;3.67;;
2299;SDS011;1158;48.750;9.078;2023-03-24T07:08:49;7.87;;;4.07;;
2299;SDS011;1158;48.750;9.078;2023-03-24T07:11:16;6.07;;;3.90;;
2299;SDS011;1158;48.750;9.078;2023-03-24T07:13:43;6.60;;;3.83;;
2299;SDS011;1158;48.750;9.078;2023-03-24T07:16:10;5.17;;;4.30;;
2299;SDS011;1158;48.750;9.078;2023-03-24T07:18:36;5.70;;;4.13;;
2299;SDS011;1158;48.750;9.078;2023-03-24T07:21:05;6.20;;;4.40;;
2299;SDS011;1158;48.750;9.078;2023-03-24T07:23:32;6.60;;;4.93;;
2299;SDS011;1158;48.750;9.078;2023-03-24T07:26:00;9.90;;;4.90;;
2299;SDS011;1158;48.750;9.078;2023-03-24T07:28:26;8.50;;;5.27;;
2299;SDS011;1158;48.750;9.078;2023-03-24T07:30:53;9.60;;;5.30;;
2299;SDS011;1158;48.750;9.078;2023-03-24T07:33:20;6.60;;;4.53;;
2299;SDS011;1158;48.750;9.078;2023-03-24T07:35:48;7.20;;;4.80;;
2299;SDS011;1158;48.750;9.078;2023-03-24T07:38:19;8.47;;;5.40;;
2299;SDS011;1158;48.750;9.078;2023-03-24T07:40:46;8.20;;;5.00;;
2299;SDS011;1158;48.750;9.078;2023-03-24T07:43:13;7.63;;;5.10;;
2299;SDS011;1158;48.750;9.078;2023-03-24T07:45:42;7.13;;;5.00;;
2299;SDS011;1158;48.750;9.078;2023-03-24T07:48:09;11.43;;;5.60;;
2299;SDS011;1158;48.750;9.078;2023-03-24T07:50:36;7.83;;;5.40;;
2299;SDS011;1158;48.750;9.078;2023-03-24T07:53:04;11.50;;;5.67;;
2299;SDS011;1158;48.750;9.078;2023-03-24T07:55:35;8.37;;;5.50;;
2299;SDS011;1158;48.750;9.078;2023-03-24T07:58:01;8.20;;;5.37;;
2299;SDS011;1158;48.750;9.078;2023-03-24T08:00:29;8.13;;;5.03;;
2299;SDS011;1158;48.750;9.078;2023-03-24T08:02:57;8.77;;;5.43;;
2299;SDS011;1158;48.750;9.078;2023-03-24T08:05:24;7.00;;;5.50;;
2299;SDS011;1158;48.750;9.078;2023-03-24T08:07:53;7.67;;;5.47;;
2299;SDS011;1158;48.750;9.078;2023-03-24T08:10:22;7.30;;;5.40;;
2299;SDS011;1158;48.750;9.078;2023-03-24T08:12:52;9.50;;;6.77;;
2299;SDS011;1158;48.750;9.078;2023-03-24T08:15:19;10.80;;;6.53;;
2299;SDS011;1158;48.750;9.078;2023-03-24T08:17:46;8.03;;;5.77;;
2299;SDS011;1158;48.750;9.078;2023-03-24T08:20:13;7.77;;;5.67;;
2299;SDS011;1158;48.750;9.078;2023-03-24T08:22:42;10.37;;;5.00;;
2299;SDS011;1158;48.750;9.078;2023-03-24T08:25:14;7.50;;;5.63;;
2299;SDS011;1158;48.750;9.078;2023-03-24T08:27:42;9.40;;;5.53;;
2299;SDS011;1158;48.750;9.078;2023-03-24T08:30:13;8.30;;;4.90;;
2299;SDS011;1158;48.750;9.078;2023-03-24T08:32:42;5.83;;;5.23;;
2299;SDS011;1158;48.750;9.078;2023-03-24T08:35:10;7.17;;;5.43;;
2299;SDS011;1158;48.750;9.078;2023-03-24T08:37:38;8.93;;;5.10;;
2299;SDS011;1158;48.750;9.078;2023-03-24T08:40:07;6.13;;;4.33;;
2299;SDS011;1158;48.750;9.078;2023-03-24T08:42:38;6.27;;;5.20;;
2299;SDS011;1158;48.750;9.078;2023-03-24T08:45:05;11.73;;;4.63;;
2299;SDS011;1158;48.750;9.078;2023-03-24T08:47:34;8.70;;;4.90;;
2299;SDS011;1158;48.750;9.078;2023-03-24T08:50:01;6.40;;;4.57;;
2299;SDS011;1158;48.750;9.078;2023-03-24T08:52:28;5.80;;;5.00;;
2299;SDS011;1158;48.750;9.078;2023-03-24T08:54:55;9.00;;;5.37;;
2299;SDS011;1158;48.750;9.078;2023-03-24T08:57:22;6.20;;;4.13;;
2299;SDS011;1158;48.750;9.078;2023-03-24T08:59:49;6.00;;;4.77;;
2299;SDS011;1158;48.750;9.078;2023-03-24T09:02:16;6.77;;;4.93;;
2299;SDS011;1158;48.750;9.078;2023-03-24T09:04:44;6.50;;;4.70;;
2299;SDS011;1158;48.750;9.078;2023-03-24T09:07:11;8.10;;;4.77;;
2299;SDS011;1158;48.750;9.078;2023-03-24T09:09:38;7.63;;;4.50;;
2299;SDS011;1158;48.750;9.078;2023-03-24T09:12:05;5.63;;;4.10;;
2299;SDS011;1158;48.750;9.078;2023-03-24T09:14:33;6.80;;;4.43;;
2299;SDS011;1158;48.750;9.078;2023-03-24T09:17:00;6.50;;;4.13;;
2299;SDS011;1158;48.750;9.078;2023-03-24T09:19:27;5.80;;;4.67;;
2299;SDS011;1158;48.750;9.078;2023-03-24T09:21:55;4.43;;;3.90;;
2299;SDS011;1158;48.750;9.078;2023-03-24T09:24:22;5.50;;;3.53;;
2299;SDS011;1158;48.750;9.078;2023-03-24T09:26:48;5.27;;;3.33;;
2299;SDS011;1158;48.750;9.078;2023-03-24T09:29:15;5.63;;;3.47;;
2299;SDS011;1158;48.750;9.078;2023-03-24T09:31:42;4.83;;;3.50;;
2299;SDS011;1158;48.750;9.078;2023-03-24T09:34:09;7.27;;;3.10;;
2299;SDS011;1158;48.750;9.078;2023-03-24T09:36:36;4.40;;;3.00;;
2299;SDS011;1158;48.750;9.078;2023-03-24T09:39:04;4.27;;;3.20;;
2299;SDS011;1158;48.750;9.078;2023-03-24T09:41:31;5.53;;;3.20;;
2299;SDS011;1158;48.750;9.078;2023-03-24T09:43:59;9.33;;;2.97;;
2299;SDS011;1158;48.750;9.078;2023-03-24T09:46:30;4.07;;;3.00;;
2299;SDS011;1158;48.750;9.078;2023-03-24T09:49:00;8.20;;;3.43;;
2299;SDS011;1158;48.750;9.078;2023-03-24T09:51:30;3.97;;;3.07;;
2299;SDS011;1158;48.750;9.078;2023-03-24T09:54:03;5.03;;;3.10;;
2299;SDS011;1158;48.750;9.078;2023-03-24T09:56:38;4.00;;;2.90;;
2299;SDS011;1158;48.750;9.078;2023-03-24T09:59:11;3.97;;;3.10;;
2299;SDS011;1158;48.750;9.078;2023-03-24T10:01:42;4.93;;;3.47;;
2299;SDS011;1158;48.750;9.078;2023-03-24T10:04:12;4.10;;;3.17;;
2299;SDS011;1158;48.750;9.078;2023-03-24T10:06:40;4.90;;;2.60;;
2299;SDS011;1158;48.750;9.078;2023-03-24T10:09:13;5.70;;;2.60;;
2299;SDS011;1158;48.750;9.078;2023-03-24T10:11:48;2.83;;;2.40;;
2299;SDS011;1158;48.750;9.078;2023-03-24T10:14:24;3.37;;;2.40;;
2299;SDS011;1158;48.750;9.078;2023-03-24T10:17:02;4.10;;;2.40;;
2299;SDS011;1158;48.750;9.078;2023-03-24T10:19:37;3.60;;;2.50;;
2299;SDS011;1158;48.750;9.078;2023-03-24T10:22:12;4.90;;;2.90;;
2299;SDS011;1158;48.750;9.078;2023-03-24T10:24:48;3.17;;;2.20;;
2299;SDS011;1158;48.750;9.078;2023-03-24T10:27:22;4.10;;;2.30;;
2299;SDS011;1158;48.750;9.078;2023-03-24T10:29:55;3.97;;;2.40;;
2299;SDS011;1158;48.750;9.078;2023-03-24T10:32:26;3.07;;;2.20;;
2299;SDS011;1158;48.750;9.078;2023-03-24T10:34:57;4.77;;;2.63;;
2299;SDS011;1158;48.750;9.078;2023-03-24T10:37:33;2.37;;;1.57;;
2299;SDS011;1158;48.750;9.078;2023-03-24T10:40:01;2.50;;;1.70;;
2299;SDS011;1158;48.750;9.078;2023-03-24T10:42:31;3.93;;;1.80;;
2299;SDS011;1158;48.750;9.078;2023-03-24T10:44:59;4.33;;;2.27;;
2299;SDS011;1158;48.750;9.078;2023-03-24T10:47:27;2.27;;;1.73;;
2299;SDS011;1158;48.750;9.078;2023-03-24T10:49:57;4.00;;;2.07;;
2299;SDS011;1158;48.750;9.078;2023-03-24T10:52:26;2.13;;;1.47;;
2299;SDS011;1158;48.750;9.078;2023-03-24T10:54:54;2.47;;;1.70;;
2299;SDS011;1158;48.750;9.078;2023-03-24T10:57:24;2.23;;;1.70;;
2299;SDS011;1158;48.750;9.078;2023-03-24T10:59:53;3.90;;;1.77;;
2299;SDS011;1158;48.750;9.078;2023-03-24T11:02:22;3.07;;;1.80;;
2299;SDS011;1158;48.750;9.078;2023-03-24T11:04:51;2.40;;;1.83;;
2299;SDS011;1158;48.750;9.078;2023-03-24T11:07:22;3.30;;;2.07;;
2299;SDS011;1158;48.750;9.078;2023-03-24T11:09:57;3.60;;;1.73;;
2299;SDS011;1158;48.750;9.078;2023-03-24T11:12:27;3.80;;;1.90;;
2299;SDS011;1158;48.750;9.078;2023-03-24T11:17:42;2.50;;;1.37;;
2299;SDS011;1158;48.750;9.078;2023-03-24T11:20:14;5.73;;;1.97;;
2299;SDS011;1158;48.750;9.078;2023-03-24T11:22:47;3.30;;;2.23;;
2299;SDS011;1158;48.750;9.078;2023-03-24T11:25:24;2.43;;;1.60;;
2299;SDS011;1158;48.750;9.078;2023-03-24T11:27:53;2.27;;;1.53;;
2299;SDS011;1158;48.750;9.078;2023-03-24T11:30:24;2.50;;;1.50;;
2299;SDS011;1158;48.750;9.078;2023-03-24T11:32:55;3.60;;;1.90;;
2299;SDS011;1158;48.750;9.078;2023-03-24T11:35:23;2.00;;;1.40;;
2299;SDS011;1158;48.750;9.078;2023-03-24T11:37:50;3.23;;;1.50;;
2299;SDS011;1158;48.750;9.078;2023-03-24T11:40:18;3.60;;;1.70;;
2299;SDS011;1158;48.750;9.078;2023-03-24T11:42:48;4.60;;;2.10;;
2299;SDS011;1158;48.750;9.078;2023-03-24T11:45:20;2.80;;;1.40;;
2299;SDS011;1158;48.750;9.078;2023-03-24T11:47:52;1.97;;;1.20;;
2299;SDS011;1158;48.750;9.078;2023-03-24T11:50:22;2.97;;;1.33;;
2299;SDS011;1158;48.750;9.078;2023-03-24T11:52:53;1.80;;;1.20;;
2299;SDS011;1158;48.750;9.078;2023-03-24T11:55:26;1.83;;;1.20;;
2299;SDS011;1158;48.750;9.078;2023-03-24T11:58:00;1.97;;;1.37;;
2299;SDS011;1158;48.750;9.078;2023-03-24T12:00:30;1.60;;;1.00;;
2299;SDS011;1158;48.750;9.078;2023-03-24T12:06:09;1.83;;;1.20;;
2299;SDS011;1158;48.750;9.078;2023-03-24T12:08:47;3.13;;;1.10;;
2299;SDS011;1158;48.750;9.078;2023-03-24T12:11:25;1.80;;;1.10;;
2299;SDS011;1158;48.750;9.078;2023-03-24T12:14:04;2.17;;;1.23;;
2299;SDS011;1158;48.750;9.078;2023-03-24T12:16:39;1.90;;;1.20;;
2299;SDS011;1158;48.750;9.078;2023-03-24T12:19:32;1.60;;;1.07;;
2299;SDS011;1158;48.750;9.078;2023-03-24T12:22:24;1.90;;;1.07;;
2299;SDS011;1158;48.750;9.078;2023-03-24T12:25:04;1.83;;;1.03;;
2299;SDS011;1158;48.750;9.078;2023-03-24T12:27:46;2.17;;;0.93;;
2299;SDS011;1158;48.750;9.078;2023-03-24T12:30:25;2.03;;;0.97;;
2299;SDS011;1158;48.750;9.078;2023-03-24T12:33:00;1.80;;;1.10;;
2299;SDS011;1158;48.750;9.078;2023-03-24T12:35:45;1.67;;;0.90;;
2299;SDS011;1158;48.750;9.078;2023-03-24T12:38:21;1.90;;;1.10;;
2299;SDS011;1158;48.750;9.078;2023-03-24T12:41:03;1.70;;;1.00;;
2299;SDS011;1158;48.750;9.078;2023-03-24T12:43:45;1.87;;;1.00;;
2299;SDS011;1158;48.750;9.078;2023-03-24T12:46:27;2.20;;;1.40;;
2299;SDS011;1158;48.750;9.078;2023-03-24T12:49:05;2.40;;;1.10;;
2299;SDS011;1158;48.750;9.078;2023-03-24T12:51:42;1.57;;;0.97;;
2299;SDS011;1158;48.750;9.078;2023-03-24T12:54:22;2.23;;;1.23;;
2299;SDS011;1158;48.750;9.078;2023-03-24T12:56:56;2.13;;;1.13;;
2299;SDS011;1158;48.750;9.078;2023-03-24T12:59:26;1.50;;;0.90;;
2299;SDS011;1158;48.750;9.078;2023-03-24T13:01:58;2.63;;;1.20;;
2299;SDS011;1158;48.750;9.078;2023-03-24T13:04:36;1.80;;;1.00;;
2299;SDS011;1158;48.750;9.078;2023-03-24T13:07:07;2.17;;;1.00;;
2299;SDS011;1158;48.750;9.078;2023-03-24T13:09:37;1.60;;;0.90;;
2299;SDS011;1158;48.750;9.078;2023-03-24T13:12:11;6.20;;;1.00;;
2299;SDS011;1158;48.750;9.078;2023-03-24T13:14:45;1.77;;;0.97;;
2299;SDS011;1158;48.750;9.078;2023-03-24T13:17:17;2.23;;;1.20;;
2299;SDS011;1158;48.750;9.078;2023-03-24T13:19:49;1.90;;;1.20;;
2299;SDS011;1158;48.750;9.078;2023-03-24T13:22:19;3.00;;;1.33;;
2299;SDS011;1158;48.750;9.078;2023-03-24T13:24:48;1.97;;;1.00;;
2299;SDS011;1158;48.750;9.078;2023-03-24T13:27:17;3.70;;;1.67;;
2299;SDS011;1158;48.750;9.078;2023-03-24T13:29:57;2.07;;;1.00;;
2299;SDS011;1158;48.750;9.078;2023-03-24T13:32:30;3.43;;;1.07;;
2299;SDS011;1158;48.750;9.078;2023-03-24T13:35:04;3.40;;;1.10;;
2299;SDS011;1158;48.750;9.078;2023-03-24T13:37:38;2.60;;;1.17;;
2299;SDS011;1158;48.750;9.078;2023-03-24T13:40:09;1.63;;;1.10;;
2299;SDS011;1158;48.750;9.078;2023-03-24T13:42:46;1.93;;;1.10;;
2299;SDS011;1158;48.750;9.078;2023-03-24T13:45:21;1.70;;;1.00;;
2299;SDS011;1158;48.750;9.078;2023-03-24T13:47:52;2.10;;;1.00;;
2299;SDS011;1158;48.750;9.078;2023-03-24T13:50:31;1.50;;;1.00;;
2299;SDS011;1158;48.750;9.078;2023-03-24T13:53:00;3.07;;;1.33;;
2299;SDS011;1158;48.750;9.078;2023-03-24T13:55:33;2.07;;;1.20;;
2299;SDS011;1158;48.750;9.078;2023-03-24T13:58:03;2.03;;;1.37;;
2299;SDS011;1158;48.750;9.078;2023-03-24T14:00:38;2.53;;;1.30;;
2299;SDS011;1158;48.750;9.078;2023-03-24T14:03:41;4.23;;;1.40;;
2299;SDS011;1158;48.750;9.078;2023-03-24T14:06:11;4.40;;;1.33;;
2299;SDS011;1158;48.750;9.078;2023-03-24T14:08:43;1.63;;;1.00;;
2299;SDS011;1158;48.750;9.078;2023-03-24T14:11:41;1.80;;;1.00;;
2299;SDS011;1158;48.750;9.078;2023-03-24T14:14:17;2.30;;;1.13;;
2299;SDS011;1158;48.750;9.078;2023-03-24T14:16:50;1.83;;;1.07;;
2299;SDS011;1158;48.750;9.078;2023-03-24T14:19:36;2.20;;;1.17;;
2299;SDS011;1158;48.750;9.078;2023-03-24T14:22:11;1.70;;;1.10;;
2299;SDS011;1158;48.750;9.078;2023-03-24T14:24:39;1.90;;;1.10;;
2299;SDS011;1158;48.750;9.078;2023-03-24T14:27:19;1.90;;;1.13;;
2299;SDS011;1158;48.750;9.078;2023-03-24T14:29:48;2.17;;;1.30;;
2299;SDS011;1158;48.750;9.078;2023-03-24T14:32:17;1.67;;;1.10;;
2299;SDS011;1158;48.750;9.078;2023-03-24T14:34:50;4.50;;;1.57;;
2299;SDS011;1158;48.750;9.078;2023-03-24T14:37:22;2.03;;;1.10;;
2299;SDS011;1158;48.750;9.078;2023-03-24T14:39:50;2.67;;;1.60;;
2299;SDS011;1158;48.750;9.078;2023-03-24T14:48:32;2.20;;;1.20;;
2299;SDS011;1158;48.750;9.078;2023-03-24T14:51:14;2.60;;;1.23;;
2299;SDS011;1158;48.750;9.078;2023-03-24T14:53:53;3.70;;;1.27;;
2299;SDS011;1158;48.750;9.078;2023-03-24T14:56:22;3.73;;;1.40;;
2299;SDS011;1158;48.750;9.078;2023-03-24T14:58:51;2.67;;;0.90;;
2299;SDS011;1158;48.750;9.078;2023-03-24T15:01:23;5.20;;;1.43;;
2299;SDS011;1158;48.750;9.078;2023-03-24T15:03:54;4.30;;;1.40;;
2299;SDS011;1158;48.750;9.078;2023-03-24T15:06:25;3.77;;;1.57;;
2299;SDS011;1158;48.750;9.078;2023-03-24T15:08:54;1.90;;;1.20;;
2299;SDS011;1158;48.750;9.078;2023-03-24T15:11:23;3.73;;;1.30;;
2299;SDS011;1158;48.750;9.078;2023-03-24T15:13:52;3.03;;;1.37;;
2299;SDS011;1158;48.750;9.078;2023-03-24T15:16:21;1.77;;;1.00;;
2299;SDS011;1158;48.750;9.078;2023-03-24T15:18:50;3.50;;;1.20;;
2299;SDS011;1158;48.750;9.078;2023-03-24T15:21:26;3.27;;;1.50;;
2299;SDS011;1158;48.750;9.078;2023-03-24T15:23:56;2.67;;;1.30;;
2299;SDS011;1158;48.750;9.078;2023-03-24T15:26:26;1.93;;;1.10;;
2299;SDS011;1158;48.750;9.078;2023-03-24T15:28:55;2.80;;;1.60;;
2299;SDS011;1158;48.750;9.078;2023-03-24T15:31:23;5.00;;;2.03;;
2299;SDS011;1158;48.750;9.078;2023-03-24T15:34:00;3.20;;;1.63;;
2299;SDS011;1158;48.750;9.078;2023-03-24T15:36:34;3.33;;;1.20;;
2299;SDS011;1158;48.750;9.078;2023-03-24T15:39:19;2.83;;;1.30;;
2299;SDS011;1158;48.750;9.078;2023-03-24T15:41:50;2.83;;;1.30;;
2299;SDS011;1158;48.750;9.078;2023-03-24T15:44:18;2.90;;;1.13;;
2299;SDS011;1158;48.750;9.078;2023-03-24T15:46:46;2.93;;;1.13;;
2299;SDS011;1158;48.750;9.078;2023-03-24T15:49:18;3.17;;;1.60;;
2299;SDS011;1158;48.750;9.078;2023-03-24T15:51:49;5.83;;;1.13;;
2299;SDS011;1158;48.750;9.078;2023-03-24T15:54:21;2.40;;;1.10;;
2299;SDS011;1158;48.750;9.078;2023-03-24T15:57:08;1.70;;;1.00;;
2299;SDS011;1158;48.750;9.078;2023-03-24T15:59:41;2.10;;;1.00;;
2299;SDS011;1158;48.750;9.078;2023-03-24T16:02:13;2.20;;;1.17;;